No particular awareness of the weather is required.   -   There are no Weather-warnings

Nearby METAR Reports

 

LEZL - Sevilla, Spain
Distance from station: ENE 8km
Updated: 19/06/2018 12:00
Clear
Clear
 Wind from E
Wind: E 7 km/h
Temperature: 31°C
Dew Point: 10°C
Humidity: 27%
Barometer: 1017 hPa
Summary: Clear
Visibility: greater than 10 km
2018/06/19 10:00 LEZL 191000Z 10004KT CAVOK 31/10 Q1017 NOSIG
LEMO - Morón, Spain
Distance from station: SE 43km
Updated: 19/06/2018 12:00
Clear
Clear
 Wind from varies
Wind: varies 2 km/h
Temperature: 30°C
Dew Point: 13°C
Humidity: 35%
Barometer: 1017 hPa
Summary: Clear
Visibility: greater than 10 km
2018/06/19 10:00 LEMO 191000Z VRB01KT CAVOK 30/13 Q1017 NOSIG
LEJR - Jeréz, Spain
Distance from station: S 71km
Updated: 19/06/2018 12:00
Clear
Clear
 Wind from E
Wind: E 4 km/h
Temperature: 30°C
Dew Point: 12°C
Humidity: 33%
Barometer: 1017 hPa
Summary: Clear
Visibility: greater than 10 km
2018/06/19 10:00 LEJR 191000Z 10002KT CAVOK 30/12 Q1017
 
LERT - Rota, Spain
Distance from station: SSW 89km
Updated: 19/06/2018 12:00
Clear
Clear
 Wind from SE
Wind: SE 28 km/h
Temperature: 29°C
Heat Index: 28°C
Dew Point: 14°C
Humidity: 40%
Barometer: 1017 hPa
Summary: Clear
Visibility: greater than 10 km
2018/06/19 10:00 LERT 191000Z 13015KT 090V160 CAVOK 29/14 Q1017 NOSIG
LEMG - Málaga, Spain
Distance from station: ESE 157km
Updated: 19/06/2018 12:00
Clear
Clear
 Wind from SSE
Wind: SSE 11 km/h
Temperature: 26°C
Dew Point: 12°C
Humidity: 42%
Barometer: 1020 hPa
Summary: Clear
Visibility: greater than 10 km
2018/06/19 10:00 LEMG 191000Z 15006KT 110V200 CAVOK 26/12 Q1020 NOSIG
LEBA - Córdoba, Spain
Distance from station: ENE 115km
Updated: 19/06/2018 12:00
Clear
Clear
 Wind from SE
Wind: SE 6 km/h
Temperature: 30°C
Dew Point: 12°C
Humidity: 33%
Barometer: 1018 hPa
Summary: Clear
Visibility: greater than 10 km
2018/06/19 10:00 LEBA 191000Z 13003KT 040V210 CAVOK 30/12 Q1018
 
LEGR - Granada, Spain
Distance from station: E 198km
Updated: 19/06/2018 12:00
Clear
Clear
 Wind from SE
Wind: SE 22 km/h
Temperature: 29°C
Dew Point: 8°C
Humidity: 27%
Barometer: 1021 hPa
Summary: Clear
Visibility: greater than 10 km
2018/06/19 10:00 LEGR 191000Z 14012KT 110V180 CAVOK 29/08 Q1021
LEAM - Almería, Spain
Distance from station: E 326km
Updated: 19/06/2018 12:00
Clear
Clear
 Wind from E
Wind: E 26 km/h
Temperature: 30°C
Dew Point: 13°C
Humidity: 35%
Barometer: 1020 hPa
Summary: Clear
Visibility: greater than 10 km
2018/06/19 10:00 LEAM 191000Z 09014KT 060V120 CAVOK 30/13 Q1020
LEMD - Madrid/Barajas, Spain
Distance from station: NNE 402km
Updated: 19/06/2018 12:00
Clear
Clear
 Wind from E
Wind: E 7 km/h
Temperature: 26°C
Dew Point: 12°C
Humidity: 42%
Barometer: 1021 hPa
Summary: Clear
Visibility: greater than 10 km
2018/06/19 10:00 LEMD 191000Z 10004KT CAVOK 26/12 Q1021 NOSIG
 
LEVD - Valladolid, Spain
Distance from station: N 492km
Updated: 19/06/2018 12:00
Clear
Clear
 Wind from ENE
Wind: ENE 19 km/h
Temperature: 19°C
Dew Point: 12°C
Humidity: 64%
Barometer: 1023 hPa
Summary: Clear
Visibility: greater than 10 km
2018/06/19 10:00 LEVD 191000Z 07010KT 030V100 CAVOK 19/12 Q1023
LEBL - Barcelona, Spain
Distance from station: NE 816km
Updated: 19/06/2018 12:00
Clear
Clear
 Wind from SSE
Wind: SSE 11 km/h
Temperature: 25°C
Dew Point: 17°C
Humidity: 61%
Barometer: 1021 hPa
Summary: Clear
Visibility: greater than 10 km
2018/06/19 10:00 LEBL 191000Z 16006KT 120V210 CAVOK 25/17 Q1021 NOSIG
LEVC - Valencia, Spain
Distance from station: ENE 535km
Updated: 19/06/2018 12:00
Few Clouds
Few Clouds
 Wind from varies
Wind: varies 7 km/h
Temperature: 28°C
Heat Index: 28°C
Dew Point: 15°C
Humidity: 45%
Barometer: 1021 hPa
Clouds: Few Clouds
Visibility: 10 km
Cloud details: Few Clouds 914 m
2018/06/19 10:00 LEVC 191000Z VRB04KT 9999 FEW030 28/15 Q1021 NOSIG